^^
Station Historical Data
Daily Summary for August 8, 2017 Units:  Metric    English   Both
« Previous Day
Next Day »
Daily Weekly Monthly Yearly Custom
  High: Low: Average:
Temperature: 23.9 °C 3.7 °C 13.6 °C
Dew Point: -1.2 °C -9.6 °C -5.8 °C
Humidity: 49% 10% 29%
Wind Speed: 6.4km/h 0km/h 0.3km/h
Wind Gust: 9.7km/h - -
Wind- - WNW
Pressure: 1019.5 hPa 1016.5 hPa -
Precipitation: 0 mm    
Historical Graphs
 
 
Tabular Data for August 8, 2017
Time Temperature Dew Point Pressure Wind Wind Speed Wind Gust Humidity Rainfall Rate (Hourly) solar Conditions
04:43 5.6 °C -4.3 °C 1017.5 hPa Calm     49% 0 mm 0.0 W/m2
06:57 3.7 °C -8 °C 1018.8 hPa Calm     42% 0 mm 16.0 W/m2
07:03 3.9 °C -8.2 °C 1018.8 hPa Calm     41% 0 mm 23.0 W/m2
07:07 4.1 °C -8 °C 1018.8 hPa Calm     41% 0 mm 72.0 W/m2
07:13 4.5 °C -7.6 °C 1019.2 hPa Calm     41% 0 mm 84.0 W/m2
07:19 5 °C -7.8 °C 1019.2 hPa Calm     39% 0 mm 105.0 W/m2
07:25 5.3 °C -7.5 °C 1019.2 hPa Calm     39% 0 mm 125.0 W/m2
07:47 7.8 °C -6.7 °C 1019.2 hPa Calm     35% 0 mm 223.0 W/m2
08:09 9.3 °C -6.6 °C 1019.5 hPa Calm     32% 0 mm 272.0 W/m2
08:18 10.8 °C -6.1 °C 1019.5 hPa Calm     30% 0 mm 318.0 W/m2
08:34 12.3 °C -4.4 °C 1019.5 hPa Calm     31% 0 mm 366.0 W/m2
08:44 13.3 °C -2.2 °C 1019.5 hPa Calm     34% 0 mm 392.0 W/m2
08:54 14 °C -1.2 °C 1019.5 hPa Calm     35% 0 mm 420.0 W/m2
08:59 14.5 °C -1.2 °C 1019.2 hPa Calm     34% 0 mm 438.0 W/m2
09:04 14.9 °C -1.2 °C 1019.2 hPa Calm     33% 0 mm 452.0 W/m2
09:09 15.2 °C -1.4 °C 1019.2 hPa Calm     32% 0 mm 466.0 W/m2
09:15 15.4 °C -1.7 °C 1019.5 hPa Calm     31% 0 mm 478.0 W/m2
13:02 23.3 °C -6.7 °C 1016.8 hPa Calm   8 km/h 13% 0 mm 652.0 W/m2
13:05 23.6 °C -7.5 °C 1016.8 hPa Calm   4.8 km/h 12% 0 mm 647.0 W/m2
13:10 23.8 °C -8.4 °C 1016.5 hPa WNW 6.4 km/h 9.7 km/h 11% 0 mm 642.0 W/m2
13:16 23.7 °C -6.4 °C 1016.5 hPa Calm     13% 0 mm 628.0 W/m2
13:22 23.7 °C -7.4 °C 1016.5 hPa Calm     12% 0 mm 628.0 W/m2
13:28 23.9 °C -8.4 °C 1016.5 hPa Calm   8 km/h 11% 0 mm 619.0 W/m2
13:37 23.9 °C -9.6 °C 1016.5 hPa Calm     10% 0 mm 598.0 W/m2
Canyon Roadhouse, Fishriver Canyon, Namibia
Compliments of Weather Underground - 1.75 mb